sensor_id;sensor_type;location;lat;lon;timestamp;temperature;humidity
913;DHT22;443;51.448;7.028;2023-08-21T00:00:31;21.10;90.10
913;DHT22;443;51.448;7.028;2023-08-21T00:02:57;21.10;90.10
913;DHT22;443;51.448;7.028;2023-08-21T00:05:24;21.10;90.10
913;DHT22;443;51.448;7.028;2023-08-21T00:07:51;21.10;90.20
913;DHT22;443;51.448;7.028;2023-08-21T00:10:19;21.10;90.20
913;DHT22;443;51.448;7.028;2023-08-21T00:12:45;21.00;90.10
913;DHT22;443;51.448;7.028;2023-08-21T00:15:12;21.10;90.20
913;DHT22;443;51.448;7.028;2023-08-21T00:17:39;21.00;90.00
913;DHT22;443;51.448;7.028;2023-08-21T00:20:06;21.10;90.00
913;DHT22;443;51.448;7.028;2023-08-21T00:22:34;21.00;89.90
913;DHT22;443;51.448;7.028;2023-08-21T00:25:01;21.00;89.80
913;DHT22;443;51.448;7.028;2023-08-21T00:27:30;21.00;90.10
913;DHT22;443;51.448;7.028;2023-08-21T00:29:57;21.00;90.10
913;DHT22;443;51.448;7.028;2023-08-21T00:32:24;21.00;90.30
913;DHT22;443;51.448;7.028;2023-08-21T00:34:51;21.00;90.10
913;DHT22;443;51.448;7.028;2023-08-21T00:37:17;21.00;90.20
913;DHT22;443;51.448;7.028;2023-08-21T00:39:45;21.00;90.30
913;DHT22;443;51.448;7.028;2023-08-21T00:42:11;21.00;89.80
913;DHT22;443;51.448;7.028;2023-08-21T00:44:39;21.00;90.00
913;DHT22;443;51.448;7.028;2023-08-21T00:47:06;21.00;89.50
913;DHT22;443;51.448;7.028;2023-08-21T00:49:33;21.00;90.00
913;DHT22;443;51.448;7.028;2023-08-21T00:52:01;21.00;89.80
913;DHT22;443;51.448;7.028;2023-08-21T00:54:28;21.00;89.70
913;DHT22;443;51.448;7.028;2023-08-21T00:56:55;21.00;90.00
913;DHT22;443;51.448;7.028;2023-08-21T00:59:22;21.00;89.50
913;DHT22;443;51.448;7.028;2023-08-21T01:01:50;21.00;89.70
913;DHT22;443;51.448;7.028;2023-08-21T01:04:17;21.00;89.70
913;DHT22;443;51.448;7.028;2023-08-21T01:06:44;21.00;89.50
913;DHT22;443;51.448;7.028;2023-08-21T01:09:15;21.00;89.70
913;DHT22;443;51.448;7.028;2023-08-21T01:11:49;21.00;89.20
913;DHT22;443;51.448;7.028;2023-08-21T01:14:23;21.00;89.80
913;DHT22;443;51.448;7.028;2023-08-21T01:16:56;21.00;90.10
913;DHT22;443;51.448;7.028;2023-08-21T01:19:30;21.00;89.70
913;DHT22;443;51.448;7.028;2023-08-21T01:21:58;21.00;89.80
913;DHT22;443;51.448;7.028;2023-08-21T01:24:26;21.00;89.60
913;DHT22;443;51.448;7.028;2023-08-21T01:26:53;21.00;89.40
913;DHT22;443;51.448;7.028;2023-08-21T01:29:20;21.00;89.50
913;DHT22;443;51.448;7.028;2023-08-21T01:31:51;21.00;89.20
913;DHT22;443;51.448;7.028;2023-08-21T01:34:20;20.90;89.40
913;DHT22;443;51.448;7.028;2023-08-21T01:36:47;21.00;89.50
913;DHT22;443;51.448;7.028;2023-08-21T01:39:14;20.90;89.00
913;DHT22;443;51.448;7.028;2023-08-21T01:41:43;20.90;89.00
913;DHT22;443;51.448;7.028;2023-08-21T01:44:10;20.90;89.10
913;DHT22;443;51.448;7.028;2023-08-21T01:46:36;20.90;89.10
913;DHT22;443;51.448;7.028;2023-08-21T01:49:03;20.90;89.20
913;DHT22;443;51.448;7.028;2023-08-21T01:51:30;20.90;89.30
913;DHT22;443;51.448;7.028;2023-08-21T01:53:57;20.90;89.30
913;DHT22;443;51.448;7.028;2023-08-21T01:56:23;20.90;89.70
913;DHT22;443;51.448;7.028;2023-08-21T01:58:51;20.90;89.30
913;DHT22;443;51.448;7.028;2023-08-21T02:01:18;20.80;89.20
913;DHT22;443;51.448;7.028;2023-08-21T02:03:45;20.80;89.00
913;DHT22;443;51.448;7.028;2023-08-21T02:06:12;20.80;89.50
913;DHT22;443;51.448;7.028;2023-08-21T02:08:39;20.80;89.50
913;DHT22;443;51.448;7.028;2023-08-21T02:11:05;20.80;89.00
913;DHT22;443;51.448;7.028;2023-08-21T02:13:32;20.80;89.30
913;DHT22;443;51.448;7.028;2023-08-21T02:16:00;20.80;89.80
913;DHT22;443;51.448;7.028;2023-08-21T02:18:27;20.80;89.40
913;DHT22;443;51.448;7.028;2023-08-21T02:20:54;20.80;89.20
913;DHT22;443;51.448;7.028;2023-08-21T02:23:21;20.80;89.20
913;DHT22;443;51.448;7.028;2023-08-21T02:25:49;20.80;89.30
913;DHT22;443;51.448;7.028;2023-08-21T02:28:16;20.70;88.80
913;DHT22;443;51.448;7.028;2023-08-21T02:30:43;20.70;89.20
913;DHT22;443;51.448;7.028;2023-08-21T02:33:11;20.80;89.80
913;DHT22;443;51.448;7.028;2023-08-21T02:35:38;20.80;89.50
913;DHT22;443;51.448;7.028;2023-08-21T02:38:05;20.70;89.50
913;DHT22;443;51.448;7.028;2023-08-21T02:40:32;20.70;89.80
913;DHT22;443;51.448;7.028;2023-08-21T02:42:58;20.70;89.50
913;DHT22;443;51.448;7.028;2023-08-21T02:45:25;20.70;90.00
913;DHT22;443;51.448;7.028;2023-08-21T02:47:52;20.70;89.90
913;DHT22;443;51.448;7.028;2023-08-21T02:50:20;20.70;89.80
913;DHT22;443;51.448;7.028;2023-08-21T02:52:47;20.70;89.90
913;DHT22;443;51.448;7.028;2023-08-21T02:55:13;20.70;90.30
913;DHT22;443;51.448;7.028;2023-08-21T02:57:41;20.60;89.30
913;DHT22;443;51.448;7.028;2023-08-21T03:00:08;20.60;89.40
913;DHT22;443;51.448;7.028;2023-08-21T03:02:36;20.60;89.70
913;DHT22;443;51.448;7.028;2023-08-21T03:05:03;20.60;90.00
913;DHT22;443;51.448;7.028;2023-08-21T03:07:31;20.60;89.80
913;DHT22;443;51.448;7.028;2023-08-21T03:09:58;20.60;89.80
913;DHT22;443;51.448;7.028;2023-08-21T03:12:27;20.60;89.40
913;DHT22;443;51.448;7.028;2023-08-21T03:14:54;20.60;89.80
913;DHT22;443;51.448;7.028;2023-08-21T03:17:21;20.60;90.00
913;DHT22;443;51.448;7.028;2023-08-21T03:19:48;20.60;90.10
913;DHT22;443;51.448;7.028;2023-08-21T03:22:14;20.60;90.00
913;DHT22;443;51.448;7.028;2023-08-21T03:24:42;20.60;90.10
913;DHT22;443;51.448;7.028;2023-08-21T03:27:09;20.50;89.60
913;DHT22;443;51.448;7.028;2023-08-21T03:29:36;20.50;90.00
913;DHT22;443;51.448;7.028;2023-08-21T03:32:03;20.60;90.20
913;DHT22;443;51.448;7.028;2023-08-21T03:34:30;20.60;90.20
913;DHT22;443;51.448;7.028;2023-08-21T03:36:56;20.50;90.00
913;DHT22;443;51.448;7.028;2023-08-21T03:39:23;20.60;90.20
913;DHT22;443;51.448;7.028;2023-08-21T03:41:51;20.60;90.30
913;DHT22;443;51.448;7.028;2023-08-21T03:44:19;20.50;90.00
913;DHT22;443;51.448;7.028;2023-08-21T03:46:46;20.50;90.00
913;DHT22;443;51.448;7.028;2023-08-21T03:49:12;20.50;90.20
913;DHT22;443;51.448;7.028;2023-08-21T03:51:39;20.50;90.20
913;DHT22;443;51.448;7.028;2023-08-21T03:54:09;20.40;90.10
913;DHT22;443;51.448;7.028;2023-08-21T03:56:37;20.50;90.40
913;DHT22;443;51.448;7.028;2023-08-21T03:59:05;20.50;90.30
913;DHT22;443;51.448;7.028;2023-08-21T04:01:32;20.50;90.20
913;DHT22;443;51.448;7.028;2023-08-21T04:03:59;20.40;90.30
913;DHT22;443;51.448;7.028;2023-08-21T04:06:25;20.50;90.40
913;DHT22;443;51.448;7.028;2023-08-21T04:08:52;20.50;90.40
913;DHT22;443;51.448;7.028;2023-08-21T04:11:20;20.40;90.20
913;DHT22;443;51.448;7.028;2023-08-21T04:13:47;20.50;90.40
913;DHT22;443;51.448;7.028;2023-08-21T04:16:15;20.50;90.40
913;DHT22;443;51.448;7.028;2023-08-21T04:18:43;20.50;90.30
913;DHT22;443;51.448;7.028;2023-08-21T04:21:10;20.50;90.30
913;DHT22;443;51.448;7.028;2023-08-21T04:23:37;20.40;90.10
913;DHT22;443;51.448;7.028;2023-08-21T04:26:04;20.40;90.30
913;DHT22;443;51.448;7.028;2023-08-21T04:28:32;20.40;90.40
913;DHT22;443;51.448;7.028;2023-08-21T04:31:00;20.50;90.40
913;DHT22;443;51.448;7.028;2023-08-21T04:33:28;20.50;90.40
913;DHT22;443;51.448;7.028;2023-08-21T04:35:55;20.50;90.40
913;DHT22;443;51.448;7.028;2023-08-21T04:38:22;20.50;90.40
913;DHT22;443;51.448;7.028;2023-08-21T04:40:49;20.40;90.20
913;DHT22;443;51.448;7.028;2023-08-21T04:43:15;20.40;90.20
913;DHT22;443;51.448;7.028;2023-08-21T04:45:47;20.40;90.20
913;DHT22;443;51.448;7.028;2023-08-21T04:48:14;20.50;90.50
913;DHT22;443;51.448;7.028;2023-08-21T04:50:42;20.50;90.40
913;DHT22;443;51.448;7.028;2023-08-21T04:53:09;20.50;90.30
913;DHT22;443;51.448;7.028;2023-08-21T04:55:36;20.40;90.20
913;DHT22;443;51.448;7.028;2023-08-21T04:58:06;20.40;90.30
913;DHT22;443;51.448;7.028;2023-08-21T05:00:32;20.40;90.40
913;DHT22;443;51.448;7.028;2023-08-21T05:02:59;20.50;90.50
913;DHT22;443;51.448;7.028;2023-08-21T05:05:26;20.60;90.70
913;DHT22;443;51.448;7.028;2023-08-21T05:07:54;20.60;90.50
913;DHT22;443;51.448;7.028;2023-08-21T05:10:21;20.60;90.30
913;DHT22;443;51.448;7.028;2023-08-21T05:12:48;20.50;90.20
913;DHT22;443;51.448;7.028;2023-08-21T05:15:14;20.50;90.30
913;DHT22;443;51.448;7.028;2023-08-21T05:17:42;20.50;90.50
913;DHT22;443;51.448;7.028;2023-08-21T05:20:09;20.50;90.30
913;DHT22;443;51.448;7.028;2023-08-21T05:22:39;20.50;90.30
913;DHT22;443;51.448;7.028;2023-08-21T05:25:08;20.50;90.30
913;DHT22;443;51.448;7.028;2023-08-21T05:27:35;20.50;90.40
913;DHT22;443;51.448;7.028;2023-08-21T05:30:02;20.60;90.70
913;DHT22;443;51.448;7.028;2023-08-21T05:32:29;20.60;90.80
913;DHT22;443;51.448;7.028;2023-08-21T05:34:56;20.60;90.30
913;DHT22;443;51.448;7.028;2023-08-21T05:37:23;20.60;90.30
913;DHT22;443;51.448;7.028;2023-08-21T05:39:49;20.50;90.40
913;DHT22;443;51.448;7.028;2023-08-21T05:42:17;20.60;90.60
913;DHT22;443;51.448;7.028;2023-08-21T05:44:44;20.60;90.60
913;DHT22;443;51.448;7.028;2023-08-21T05:47:11;20.60;90.50
913;DHT22;443;51.448;7.028;2023-08-21T05:49:38;20.60;90.50
913;DHT22;443;51.448;7.028;2023-08-21T05:52:05;20.60;90.20
913;DHT22;443;51.448;7.028;2023-08-21T05:54:31;20.60;90.20
913;DHT22;443;51.448;7.028;2023-08-21T05:56:58;20.60;90.50
913;DHT22;443;51.448;7.028;2023-08-21T05:59:30;20.60;90.60
913;DHT22;443;51.448;7.028;2023-08-21T06:01:57;20.60;90.50
913;DHT22;443;51.448;7.028;2023-08-21T06:04:24;20.60;90.20
913;DHT22;443;51.448;7.028;2023-08-21T06:06:52;20.60;90.20
913;DHT22;443;51.448;7.028;2023-08-21T06:09:19;20.60;90.50
913;DHT22;443;51.448;7.028;2023-08-21T06:11:46;20.60;90.30
913;DHT22;443;51.448;7.028;2023-08-21T06:14:13;20.60;90.70
913;DHT22;443;51.448;7.028;2023-08-21T06:16:41;20.60;90.30
913;DHT22;443;51.448;7.028;2023-08-21T06:19:09;20.60;90.50
913;DHT22;443;51.448;7.028;2023-08-21T06:21:36;20.60;90.30
913;DHT22;443;51.448;7.028;2023-08-21T06:24:03;20.60;90.30
913;DHT22;443;51.448;7.028;2023-08-21T06:26:29;20.60;90.40
913;DHT22;443;51.448;7.028;2023-08-21T06:28:56;20.60;90.30
913;DHT22;443;51.448;7.028;2023-08-21T06:31:23;20.70;90.30
913;DHT22;443;51.448;7.028;2023-08-21T06:33:51;20.70;90.30
913;DHT22;443;51.448;7.028;2023-08-21T06:36:18;20.70;90.20
913;DHT22;443;51.448;7.028;2023-08-21T06:38:45;20.70;90.40
913;DHT22;443;51.448;7.028;2023-08-21T06:41:11;20.70;90.40
913;DHT22;443;51.448;7.028;2023-08-21T06:43:38;20.70;90.30
913;DHT22;443;51.448;7.028;2023-08-21T06:46:05;20.70;90.10
913;DHT22;443;51.448;7.028;2023-08-21T06:48:31;20.70;90.20
913;DHT22;443;51.448;7.028;2023-08-21T06:50:59;20.70;90.30
913;DHT22;443;51.448;7.028;2023-08-21T06:53:27;20.70;90.30
913;DHT22;443;51.448;7.028;2023-08-21T06:55:55;20.70;90.30
913;DHT22;443;51.448;7.028;2023-08-21T06:58:21;20.80;90.20
913;DHT22;443;51.448;7.028;2023-08-21T07:00:48;20.80;90.20
913;DHT22;443;51.448;7.028;2023-08-21T07:03:15;20.80;90.20
913;DHT22;443;51.448;7.028;2023-08-21T07:05:46;20.80;90.30
913;DHT22;443;51.448;7.028;2023-08-21T07:08:14;20.80;90.60
913;DHT22;443;51.448;7.028;2023-08-21T07:10:41;20.80;90.30
913;DHT22;443;51.448;7.028;2023-08-21T07:13:07;20.80;90.30
913;DHT22;443;51.448;7.028;2023-08-21T07:15:34;20.80;90.30
913;DHT22;443;51.448;7.028;2023-08-21T07:18:01;20.80;90.30
913;DHT22;443;51.448;7.028;2023-08-21T07:20:28;20.70;90.30
913;DHT22;443;51.448;7.028;2023-08-21T07:22:55;20.80;90.30
913;DHT22;443;51.448;7.028;2023-08-21T07:25:23;20.80;90.30
913;DHT22;443;51.448;7.028;2023-08-21T07:27:50;20.80;90.30
913;DHT22;443;51.448;7.028;2023-08-21T07:30:19;20.70;90.20
913;DHT22;443;51.448;7.028;2023-08-21T07:32:46;20.80;90.30
913;DHT22;443;51.448;7.028;2023-08-21T07:35:13;20.80;90.30
913;DHT22;443;51.448;7.028;2023-08-21T07:37:39;20.80;90.30
913;DHT22;443;51.448;7.028;2023-08-21T07:40:10;20.80;90.30
913;DHT22;443;51.448;7.028;2023-08-21T07:42:38;20.80;90.20
913;DHT22;443;51.448;7.028;2023-08-21T07:45:06;20.80;90.20
913;DHT22;443;51.448;7.028;2023-08-21T07:47:33;20.80;90.20
913;DHT22;443;51.448;7.028;2023-08-21T07:49:59;20.80;90.20
913;DHT22;443;51.448;7.028;2023-08-21T07:52:26;20.80;90.30
913;DHT22;443;51.448;7.028;2023-08-21T07:54:53;20.80;90.20
913;DHT22;443;51.448;7.028;2023-08-21T07:57:19;20.80;90.30
913;DHT22;443;51.448;7.028;2023-08-21T07:59:48;20.80;90.30
913;DHT22;443;51.448;7.028;2023-08-21T08:02:14;20.80;90.30
913;DHT22;443;51.448;7.028;2023-08-21T08:04:42;20.80;90.20
913;DHT22;443;51.448;7.028;2023-08-21T08:07:09;20.80;90.20
913;DHT22;443;51.448;7.028;2023-08-21T08:09:36;20.80;90.30
913;DHT22;443;51.448;7.028;2023-08-21T08:12:03;20.80;90.30
913;DHT22;443;51.448;7.028;2023-08-21T08:14:30;20.80;90.20
913;DHT22;443;51.448;7.028;2023-08-21T08:16:58;20.80;90.20
913;DHT22;443;51.448;7.028;2023-08-21T08:19:24;20.80;90.20
913;DHT22;443;51.448;7.028;2023-08-21T08:21:51;20.80;90.20
913;DHT22;443;51.448;7.028;2023-08-21T08:24:18;20.90;90.20
913;DHT22;443;51.448;7.028;2023-08-21T08:26:45;20.90;90.20
913;DHT22;443;51.448;7.028;2023-08-21T08:29:11;20.90;90.20
913;DHT22;443;51.448;7.028;2023-08-21T08:31:38;20.90;90.20
913;DHT22;443;51.448;7.028;2023-08-21T08:34:06;20.90;90.10
913;DHT22;443;51.448;7.028;2023-08-21T08:36:34;20.90;90.20
913;DHT22;443;51.448;7.028;2023-08-21T08:39:01;20.90;90.20
913;DHT22;443;51.448;7.028;2023-08-21T08:41:34;20.90;90.20
913;DHT22;443;51.448;7.028;2023-08-21T08:44:05;20.90;90.20
913;DHT22;443;51.448;7.028;2023-08-21T08:46:32;20.90;90.20
913;DHT22;443;51.448;7.028;2023-08-21T08:49:01;20.90;90.20
913;DHT22;443;51.448;7.028;2023-08-21T08:51:30;20.90;90.20
913;DHT22;443;51.448;7.028;2023-08-21T08:53:58;20.90;90.20
913;DHT22;443;51.448;7.028;2023-08-21T08:56:25;20.90;90.20
913;DHT22;443;51.448;7.028;2023-08-21T08:58:52;20.90;90.20
913;DHT22;443;51.448;7.028;2023-08-21T09:01:18;20.90;90.20
913;DHT22;443;51.448;7.028;2023-08-21T09:03:45;20.90;90.10
913;DHT22;443;51.448;7.028;2023-08-21T09:06:12;20.90;90.10
913;DHT22;443;51.448;7.028;2023-08-21T09:08:52;20.90;90.10
913;DHT22;443;51.448;7.028;2023-08-21T09:11:20;20.90;90.10
913;DHT22;443;51.448;7.028;2023-08-21T09:13:48;21.00;90.20
913;DHT22;443;51.448;7.028;2023-08-21T09:16:17;20.90;90.10
913;DHT22;443;51.448;7.028;2023-08-21T09:18:46;20.90;90.10
913;DHT22;443;51.448;7.028;2023-08-21T09:21:16;21.00;90.20
913;DHT22;443;51.448;7.028;2023-08-21T09:23:44;20.90;90.10
913;DHT22;443;51.448;7.028;2023-08-21T09:26:11;21.00;90.10
913;DHT22;443;51.448;7.028;2023-08-21T09:28:38;21.00;90.10
913;DHT22;443;51.448;7.028;2023-08-21T09:31:05;21.00;90.20
913;DHT22;443;51.448;7.028;2023-08-21T09:33:31;21.00;90.10
913;DHT22;443;51.448;7.028;2023-08-21T09:36:00;21.00;90.10
913;DHT22;443;51.448;7.028;2023-08-21T09:38:27;21.00;90.10
913;DHT22;443;51.448;7.028;2023-08-21T09:40:56;21.00;90.10
913;DHT22;443;51.448;7.028;2023-08-21T09:43:24;21.00;90.10
913;DHT22;443;51.448;7.028;2023-08-21T09:45:52;21.00;90.00
913;DHT22;443;51.448;7.028;2023-08-21T09:48:21;21.00;90.10
913;DHT22;443;51.448;7.028;2023-08-21T09:50:50;21.00;90.10
913;DHT22;443;51.448;7.028;2023-08-21T09:53:17;21.00;90.10
913;DHT22;443;51.448;7.028;2023-08-21T09:55:44;21.00;90.00
913;DHT22;443;51.448;7.028;2023-08-21T09:58:13;21.00;90.00
913;DHT22;443;51.448;7.028;2023-08-21T10:00:40;21.00;90.00
913;DHT22;443;51.448;7.028;2023-08-21T10:03:09;21.00;90.00
913;DHT22;443;51.448;7.028;2023-08-21T10:05:38;21.10;90.00
913;DHT22;443;51.448;7.028;2023-08-21T10:08:06;21.10;90.00
913;DHT22;443;51.448;7.028;2023-08-21T10:10:33;21.10;90.00
913;DHT22;443;51.448;7.028;2023-08-21T10:13:01;21.10;90.00
913;DHT22;443;51.448;7.028;2023-08-21T10:15:31;21.10;89.90
913;DHT22;443;51.448;7.028;2023-08-21T10:18:18;21.10;90.00
913;DHT22;443;51.448;7.028;2023-08-21T10:20:45;21.10;90.00
913;DHT22;443;51.448;7.028;2023-08-21T10:23:23;21.10;90.00
913;DHT22;443;51.448;7.028;2023-08-21T10:25:54;21.00;89.90
913;DHT22;443;51.448;7.028;2023-08-21T10:28:22;21.10;90.00
913;DHT22;443;51.448;7.028;2023-08-21T10:30:50;21.10;90.00
913;DHT22;443;51.448;7.028;2023-08-21T10:33:46;21.10;90.00
913;DHT22;443;51.448;7.028;2023-08-21T10:36:13;21.10;90.00
913;DHT22;443;51.448;7.028;2023-08-21T10:39:00;21.10;90.00
913;DHT22;443;51.448;7.028;2023-08-21T10:41:27;21.10;90.10
913;DHT22;443;51.448;7.028;2023-08-21T10:43:54;21.00;90.00
913;DHT22;443;51.448;7.028;2023-08-21T10:46:23;21.10;90.00
913;DHT22;443;51.448;7.028;2023-08-21T10:48:49;21.10;90.10
913;DHT22;443;51.448;7.028;2023-08-21T10:51:17;21.10;90.00
913;DHT22;443;51.448;7.028;2023-08-21T10:53:45;21.10;90.00
913;DHT22;443;51.448;7.028;2023-08-21T10:56:11;21.10;90.00
913;DHT22;443;51.448;7.028;2023-08-21T10:58:40;21.10;90.00
913;DHT22;443;51.448;7.028;2023-08-21T11:01:07;21.10;90.00
913;DHT22;443;51.448;7.028;2023-08-21T11:03:38;21.00;89.90
913;DHT22;443;51.448;7.028;2023-08-21T11:06:05;21.10;89.90
913;DHT22;443;51.448;7.028;2023-08-21T11:08:33;21.10;89.80
913;DHT22;443;51.448;7.028;2023-08-21T11:11:01;21.10;90.00
913;DHT22;443;51.448;7.028;2023-08-21T11:13:28;21.10;90.00
913;DHT22;443;51.448;7.028;2023-08-21T11:15:58;21.10;89.90
913;DHT22;443;51.448;7.028;2023-08-21T11:18:37;21.10;89.90
913;DHT22;443;51.448;7.028;2023-08-21T11:21:06;21.10;89.90
913;DHT22;443;51.448;7.028;2023-08-21T11:23:34;21.10;89.80
913;DHT22;443;51.448;7.028;2023-08-21T11:26:01;21.10;89.70
913;DHT22;443;51.448;7.028;2023-08-21T11:28:29;21.20;89.70
913;DHT22;443;51.448;7.028;2023-08-21T11:30:57;21.10;89.70
913;DHT22;443;51.448;7.028;2023-08-21T11:33:25;21.10;89.60
913;DHT22;443;51.448;7.028;2023-08-21T11:35:53;21.20;89.70
913;DHT22;443;51.448;7.028;2023-08-21T11:38:24;21.20;89.70
913;DHT22;443;51.448;7.028;2023-08-21T11:40:52;21.20;89.70
913;DHT22;443;51.448;7.028;2023-08-21T11:43:19;21.20;90.20
913;DHT22;443;51.448;7.028;2023-08-21T11:45:46;21.10;89.40
913;DHT22;443;51.448;7.028;2023-08-21T11:48:13;21.20;89.70
913;DHT22;443;51.448;7.028;2023-08-21T11:50:40;21.20;89.60
913;DHT22;443;51.448;7.028;2023-08-21T11:53:08;21.20;89.70
913;DHT22;443;51.448;7.028;2023-08-21T11:55:36;21.20;89.70
913;DHT22;443;51.448;7.028;2023-08-21T11:58:04;21.20;89.60
913;DHT22;443;51.448;7.028;2023-08-21T12:00:32;21.20;89.50
913;DHT22;443;51.448;7.028;2023-08-21T12:03:00;21.20;89.50
913;DHT22;443;51.448;7.028;2023-08-21T12:05:28;21.20;90.00
913;DHT22;443;51.448;7.028;2023-08-21T12:07:55;21.20;89.50
913;DHT22;443;51.448;7.028;2023-08-21T12:10:24;21.20;89.50
913;DHT22;443;51.448;7.028;2023-08-21T12:12:51;21.20;89.60
913;DHT22;443;51.448;7.028;2023-08-21T12:15:18;21.30;89.60
913;DHT22;443;51.448;7.028;2023-08-21T12:17:45;21.20;90.10
913;DHT22;443;51.448;7.028;2023-08-21T12:20:12;21.20;89.50
913;DHT22;443;51.448;7.028;2023-08-21T12:22:40;21.20;89.50
913;DHT22;443;51.448;7.028;2023-08-21T12:25:08;21.20;89.50
913;DHT22;443;51.448;7.028;2023-08-21T12:27:36;21.30;89.50
913;DHT22;443;51.448;7.028;2023-08-21T12:30:04;21.30;89.50
913;DHT22;443;51.448;7.028;2023-08-21T12:32:31;21.30;89.50
913;DHT22;443;51.448;7.028;2023-08-21T12:34:58;21.30;89.50
913;DHT22;443;51.448;7.028;2023-08-21T12:37:25;21.30;89.40
913;DHT22;443;51.448;7.028;2023-08-21T12:39:53;21.30;89.30
913;DHT22;443;51.448;7.028;2023-08-21T12:42:20;21.30;89.30
913;DHT22;443;51.448;7.028;2023-08-21T12:44:48;21.30;89.30
913;DHT22;443;51.448;7.028;2023-08-21T12:47:14;21.30;89.20
913;DHT22;443;51.448;7.028;2023-08-21T12:49:41;21.30;89.30
913;DHT22;443;51.448;7.028;2023-08-21T12:52:08;21.30;89.20
913;DHT22;443;51.448;7.028;2023-08-21T12:54:34;21.30;89.30
913;DHT22;443;51.448;7.028;2023-08-21T12:57:01;21.30;89.10
913;DHT22;443;51.448;7.028;2023-08-21T12:59:28;21.30;89.20
913;DHT22;443;51.448;7.028;2023-08-21T13:01:58;21.40;89.20
913;DHT22;443;51.448;7.028;2023-08-21T13:04:25;21.30;89.00
913;DHT22;443;51.448;7.028;2023-08-21T13:06:52;21.30;89.10
913;DHT22;443;51.448;7.028;2023-08-21T13:09:19;21.30;89.20
913;DHT22;443;51.448;7.028;2023-08-21T13:11:45;21.30;89.20
913;DHT22;443;51.448;7.028;2023-08-21T13:14:12;21.30;89.20
913;DHT22;443;51.448;7.028;2023-08-21T13:16:39;21.30;89.80
913;DHT22;443;51.448;7.028;2023-08-21T13:19:07;21.30;89.10
913;DHT22;443;51.448;7.028;2023-08-21T13:21:33;21.30;89.20
913;DHT22;443;51.448;7.028;2023-08-21T13:24:00;21.40;89.10
913;DHT22;443;51.448;7.028;2023-08-21T13:26:27;21.40;88.90
913;DHT22;443;51.448;7.028;2023-08-21T13:28:55;21.40;88.90
913;DHT22;443;51.448;7.028;2023-08-21T13:31:22;21.40;89.20
913;DHT22;443;51.448;7.028;2023-08-21T13:33:49;21.30;89.20
913;DHT22;443;51.448;7.028;2023-08-21T13:36:17;21.40;89.30
913;DHT22;443;51.448;7.028;2023-08-21T13:38:45;21.30;89.30
913;DHT22;443;51.448;7.028;2023-08-21T13:41:12;21.30;89.30
913;DHT22;443;51.448;7.028;2023-08-21T13:43:39;21.40;89.00
913;DHT22;443;51.448;7.028;2023-08-21T13:46:06;21.50;88.50
913;DHT22;443;51.448;7.028;2023-08-21T13:48:33;21.50;88.20
913;DHT22;443;51.448;7.028;2023-08-21T13:50:59;21.60;88.30
913;DHT22;443;51.448;7.028;2023-08-21T13:53:27;21.60;88.10
913;DHT22;443;51.448;7.028;2023-08-21T13:55:54;21.60;88.00
913;DHT22;443;51.448;7.028;2023-08-21T13:58:21;21.60;88.00
913;DHT22;443;51.448;7.028;2023-08-21T14:00:48;21.60;88.10
913;DHT22;443;51.448;7.028;2023-08-21T14:03:15;21.50;88.30
913;DHT22;443;51.448;7.028;2023-08-21T14:05:42;21.60;88.10
913;DHT22;443;51.448;7.028;2023-08-21T14:08:08;21.70;88.00
913;DHT22;443;51.448;7.028;2023-08-21T14:10:36;21.60;88.00
913;DHT22;443;51.448;7.028;2023-08-21T14:13:03;21.60;88.60
913;DHT22;443;51.448;7.028;2023-08-21T14:15:33;21.60;88.00
913;DHT22;443;51.448;7.028;2023-08-21T14:18:00;21.60;88.20
913;DHT22;443;51.448;7.028;2023-08-21T14:20:28;21.60;88.20
913;DHT22;443;51.448;7.028;2023-08-21T14:22:54;21.60;89.00
913;DHT22;443;51.448;7.028;2023-08-21T14:25:21;21.60;88.30
913;DHT22;443;51.448;7.028;2023-08-21T14:27:49;21.60;88.20
913;DHT22;443;51.448;7.028;2023-08-21T14:30:16;21.60;88.40
913;DHT22;443;51.448;7.028;2023-08-21T14:32:43;21.60;88.20
913;DHT22;443;51.448;7.028;2023-08-21T14:35:10;21.60;88.30
913;DHT22;443;51.448;7.028;2023-08-21T14:37:36;21.60;88.30
913;DHT22;443;51.448;7.028;2023-08-21T14:40:05;21.60;88.30
913;DHT22;443;51.448;7.028;2023-08-21T14:42:33;21.60;88.30
913;DHT22;443;51.448;7.028;2023-08-21T14:45:01;21.60;88.60
913;DHT22;443;51.448;7.028;2023-08-21T14:47:29;21.50;88.40
913;DHT22;443;51.448;7.028;2023-08-21T14:49:55;21.50;88.40
913;DHT22;443;51.448;7.028;2023-08-21T14:52:22;21.50;88.40
913;DHT22;443;51.448;7.028;2023-08-21T14:54:51;21.50;88.30
913;DHT22;443;51.448;7.028;2023-08-21T14:57:18;21.50;88.40
913;DHT22;443;51.448;7.028;2023-08-21T14:59:44;21.50;88.40
913;DHT22;443;51.448;7.028;2023-08-21T15:02:13;21.60;88.40
913;DHT22;443;51.448;7.028;2023-08-21T15:04:39;21.50;88.40
913;DHT22;443;51.448;7.028;2023-08-21T15:07:06;21.50;88.20
913;DHT22;443;51.448;7.028;2023-08-21T15:09:33;21.50;88.50
913;DHT22;443;51.448;7.028;2023-08-21T15:12:00;21.50;88.60
913;DHT22;443;51.448;7.028;2023-08-21T15:14:27;21.50;88.40
913;DHT22;443;51.448;7.028;2023-08-21T15:16:54;21.50;88.50
913;DHT22;443;51.448;7.028;2023-08-21T15:19:22;21.50;88.60
913;DHT22;443;51.448;7.028;2023-08-21T15:21:49;21.50;88.50
913;DHT22;443;51.448;7.028;2023-08-21T15:24:15;21.50;88.60
913;DHT22;443;51.448;7.028;2023-08-21T15:26:42;21.50;88.50
913;DHT22;443;51.448;7.028;2023-08-21T15:29:09;21.50;88.60
913;DHT22;443;51.448;7.028;2023-08-21T15:31:36;21.50;88.50
913;DHT22;443;51.448;7.028;2023-08-21T15:34:02;21.50;88.80
913;DHT22;443;51.448;7.028;2023-08-21T15:36:30;21.50;88.70
913;DHT22;443;51.448;7.028;2023-08-21T15:38:58;21.50;88.50
913;DHT22;443;51.448;7.028;2023-08-21T15:41:25;21.50;88.50
913;DHT22;443;51.448;7.028;2023-08-21T15:43:52;21.50;88.50
913;DHT22;443;51.448;7.028;2023-08-21T15:46:19;21.60;88.40
913;DHT22;443;51.448;7.028;2023-08-21T15:48:45;21.60;88.50
913;DHT22;443;51.448;7.028;2023-08-21T15:51:12;21.60;88.40
913;DHT22;443;51.448;7.028;2023-08-21T15:53:40;21.60;88.30
913;DHT22;443;51.448;7.028;2023-08-21T15:56:07;21.60;88.00
913;DHT22;443;51.448;7.028;2023-08-21T15:58:34;21.60;87.90
913;DHT22;443;51.448;7.028;2023-08-21T16:01:01;21.60;88.00
913;DHT22;443;51.448;7.028;2023-08-21T16:03:27;21.60;88.00
913;DHT22;443;51.448;7.028;2023-08-21T16:05:54;21.70;87.90
913;DHT22;443;51.448;7.028;2023-08-21T16:08:21;21.80;87.90
913;DHT22;443;51.448;7.028;2023-08-21T16:10:49;21.80;87.60
913;DHT22;443;51.448;7.028;2023-08-21T16:13:16;21.80;87.30
913;DHT22;443;51.448;7.028;2023-08-21T16:15:44;21.90;87.40
913;DHT22;443;51.448;7.028;2023-08-21T16:18:11;21.90;86.90
913;DHT22;443;51.448;7.028;2023-08-21T16:20:37;21.90;87.10
913;DHT22;443;51.448;7.028;2023-08-21T16:23:04;21.80;87.20
913;DHT22;443;51.448;7.028;2023-08-21T16:25:31;21.70;87.50
913;DHT22;443;51.448;7.028;2023-08-21T16:27:59;21.70;87.60
913;DHT22;443;51.448;7.028;2023-08-21T16:30:26;21.70;87.60
913;DHT22;443;51.448;7.028;2023-08-21T16:32:52;21.70;87.50
913;DHT22;443;51.448;7.028;2023-08-21T16:35:19;21.70;87.70